Detall de PIREP

Printer-friendly versionPDF version

[2013/06/12 10:43:00]
Flight IATA:CT2100
Pilot Number:042
Company ICAO:CAT
Aircraft Type:F100/F
PAX:40
Aircraft Registration:DA
Departing Airport: LEVC
Destination Airport: LEAS
Alternate Airport:LEMD
Online: VATSIM
Route:CENTA/N380F230 A33 PRADO/N470F330 UN733 ZMR UM30 ROVAK R107 XONDA
Flight Level:F330
No Slew and time accel
No pause
Crash detect
Detect pilot in Cockpit between each 30 and 45 minutes
10:43 Zero fuel Weight: 80840 Lbs, Fuel Weight: 23608 Lbs
10:43 VATSIM:LEVC 121030Z 12004KT 080V160 9999 FEW025 29/16 Q1020 NOSIG
10:43 VATSIM:LEAS 121030Z 05006KT 350V090 CAVOK 22/15 Q1019 NOSIG
10:44 VOICE CATALONIAN
10:55 Parking Brakes off
11:03 Take-off
11:03 Take off Weight: 103752 Lbs
11:03 Wind: 081º @ 004 Knots Heading: 114º
11:03 POS N39º 29´ 24´´ W000º 29´ 00´´
11:03 Gear Up: 164 Knots
11:03 Flaps:2 at 164 Knots
11:03 Flaps:1 at 164 Knots
11:03 Flaps:0at 163 Knots
11:18 Wind:083º@014 Knots Heading: 300º Ground Speed: 403 Knots Altitude 18730 ft
11:33 Wind:258º@014 Knots Heading: 295º Ground Speed: 414 Knots Altitude 29481 ft
11:38 TOC
11:38 Fuel Weight: 18985 Lb
11:48 Wind:231º@015 Knots Heading: 295º Ground Speed: 410 Knots Altitude 33330 ft
11:59 TOD
11:59 Fuel Weight: 17559 Lb
12:03 Wind:176º@009 Knots Heading: 352º Ground Speed: 314 Knots Altitude 23503 ft
12:07 Flaps:1 at 184 Knots
12:11 Flaps:2 at 199 Knots
12:12 Flaps:3 at 185 Knots
12:14 Gear Down: 181 Knots
12:14 Flaps:4 at 180 Knots
12:17 TouchDown:Rate -256 ft/min Speed: 152 Knots
12:17 VATSIM:LEAS 121200Z 04006KT 330V090 CAVOK 22/16 Q1019 NOSIG
12:17 Land
12:17 Wind:038º@006 Knots
12:17 Heading: 289º
12:17 Flight Duration: 01:14
12:17 Landing Weight: 97601 Lbs
12:17 POS N43º 33´ 51´´ W006º 02´ 17´´
12:24 Parking brakes on
12:24 Block toBlock Duration: 01:29
12:24 Final Fuel: 16404 Lbls
12:24 Spent Fuel: 7204 Lbls
12:24 Flight Length: 435 NM
12:24 TOD Land Length: 72 NM

Exportar CSV

Powered by Drupal - Modified by Danger4k